Flag Hope — D5DW5 — position and weather

sailwx.info

Track history (hours):
 
Tides and Currents Weather Stations Pressure Air Temp Water Temp Dewpoint Dewpoint Depression Visibility Wind Speed Wind Dir Waves Ship Positions

Flag Hope

Last reported at 2017-Sep-20 06:42 UTC. Time now 2017-Sep-20 23:47 UTC.
Position N 36°48' E 013°31'.

Length 229 m; draft 7.5 m.

Type: Cargo ship. MMSI: 636015989.

Date/timePositionNaut miles runAvg speedWind from/ knotsBaromVisibWave heightAir tempDewpointWater temp
2017-Sep-20 06:42N 36°48' E 013°31'2 9.3
2017-Sep-20 06:30N 36°47' E 013°33'5 9.2
2017-Sep-20 06:00N 36°46' E 013°39'5 9.4
2017-Sep-20 05:30N 36°44' E 013°44'5 9.4
2017-Sep-20 05:00N 36°43' E 013°50'5 9.2
2017-Sep-20 04:30N 36°41' E 013°55'5 9.4
2017-Sep-20 04:00N 36°39' E 014°00'5 9.6
2017-Sep-20 03:30N 36°38' E 014°06'5 9.6
2017-Sep-20 02:58N 36°36' E 014°12'5 9.9
2017-Sep-20 02:30N 36°34' E 014°18'510.2
2017-Sep-20 02:00N 36°32' E 014°23'510.2
2017-Sep-20 01:30N 36°30' E 014°29'510.4
2017-Sep-20 01:00N 36°29' E 014°35'510.3
2017-Sep-20 00:30N 36°27' E 014°41'5 9.9
2017-Sep-20 00:00N 36°25' E 014°47'5 9.4
2017-Sep-19 23:29N 36°24' E 014°53'7310.5
2017-Sep-19 16:31N 36°01' E 016°19'011.9
2017-Sep-19 16:29N 36°01' E 016°19'11712.0
2017-Sep-19 06:48N 35°25' E 018°36'2912.0
2017-Sep-19 04:26N 35°16' E 019°09'512.2
2017-Sep-19 04:00N 35°14' E 019°15'3812.2
2017-Sep-19 00:52N 35°03' E 019°60'1611.9
2017-Sep-18 23:31N 34°58' E 020°19'011.5
2017-Sep-18 23:30N 34°58' E 020°19'4011.8
2017-Sep-18 20:08N 34°46' E 021°05'211.7
2017-Sep-18 20:00N 34°45' E 021°07'711.8
2017-Sep-18 19:25N 34°43' E 021°15'711.7
2017-Sep-18 18:50N 34°41' E 021°23'411.6
2017-Sep-18 18:30N 34°40' E 021°27'611.6
2017-Sep-18 18:00N 34°38' E 021°34'611.8
2017-Sep-18 17:30N 34°36' E 021°40'811.5
2017-Sep-18 16:46N 34°34' E 021°50'32311.6
2017-Sep-17 13:01N 32°55' E 027°59'011.8
2017-Sep-17 13:00N 32°55' E 027°60'  
Track history (hours):
 
Tides and Currents Weather Stations Pressure Air Temp Water Temp Dewpoint Dewpoint Depression Visibility Wind Speed Wind Dir Waves Ship Positions

Flag Hope

Last reported at 2017-Sep-20 06:42 UTC. Time now 2017-Sep-20 23:47 UTC.
Position N 36°48' E 013°31'.

Length 229 m; draft 7.5 m.

Type: Cargo ship. MMSI: 636015989.

Date/timePositionNaut miles runAvg speedWind from/ knotsBaromVisibWave heightAir tempDewpointWater temp
2017-Sep-20 06:42N 36°48' E 013°31'2 9.3
2017-Sep-20 06:30N 36°47' E 013°33'5 9.2
2017-Sep-20 06:00N 36°46' E 013°39'5 9.4
2017-Sep-20 05:30N 36°44' E 013°44'5 9.4
2017-Sep-20 05:00N 36°43' E 013°50'5 9.2
2017-Sep-20 04:30N 36°41' E 013°55'5 9.4
2017-Sep-20 04:00N 36°39' E 014°00'5 9.6
2017-Sep-20 03:30N 36°38' E 014°06'5 9.6
2017-Sep-20 02:58N 36°36' E 014°12'5 9.9
2017-Sep-20 02:30N 36°34' E 014°18'510.2
2017-Sep-20 02:00N 36°32' E 014°23'510.2
2017-Sep-20 01:30N 36°30' E 014°29'510.4
2017-Sep-20 01:00N 36°29' E 014°35'510.3
2017-Sep-20 00:30N 36°27' E 014°41'5 9.9
2017-Sep-20 00:00N 36°25' E 014°47'5 9.4
2017-Sep-19 23:29N 36°24' E 014°53'7310.5
2017-Sep-19 16:31N 36°01' E 016°19'011.9
2017-Sep-19 16:29N 36°01' E 016°19'11712.0
2017-Sep-19 06:48N 35°25' E 018°36'2912.0
2017-Sep-19 04:26N 35°16' E 019°09'512.2
2017-Sep-19 04:00N 35°14' E 019°15'3812.2
2017-Sep-19 00:52N 35°03' E 019°60'1611.9
2017-Sep-18 23:31N 34°58' E 020°19'011.5
2017-Sep-18 23:30N 34°58' E 020°19'4011.8
2017-Sep-18 20:08N 34°46' E 021°05'211.7
2017-Sep-18 20:00N 34°45' E 021°07'711.8
2017-Sep-18 19:25N 34°43' E 021°15'711.7
2017-Sep-18 18:50N 34°41' E 021°23'411.6
2017-Sep-18 18:30N 34°40' E 021°27'611.6
2017-Sep-18 18:00N 34°38' E 021°34'611.8
2017-Sep-18 17:30N 34°36' E 021°40'811.5
2017-Sep-18 16:46N 34°34' E 021°50'32311.6
2017-Sep-17 13:01N 32°55' E 027°59'011.8
2017-Sep-17 13:00N 32°55' E 027°60'  

Dump ship's entire track history